North Manheim, Pennsylvania
Current Conditions -  °F | °C
As of 6:58 AM on Wednesday 28 Jan 2015 (Local Time) from KMUI Reporting Station
Clear Clear  
Wind Chill: -16°   Ceiling: Unl
Heat Index: -8°   Visibility: 10mi
Dew Point: -18°   Wind: 15mph
Humidity: 44%   Direction: 310°NW
Pressure: 30.11"   Gusts: 23mph
Location:  40.6882°N, 76.264°W
Report Text: KMUI 281158Z AUTO 31013G20KT 280V350 10SM CLR M08/M18 A3011 RMK AO2 SLP206 60000 T10801183 11080 21084 52026
Loading
Personal Weather Stations






























Interactive Weather Map New forecast layout! Learn more

10-Day Weather Forecast

Advertisements
Track Severe Weather on mobile